Time,TemperatureF,DewpointF,PressureIn,WindDirection,WindDirectionDegrees,WindSpeedMPH,WindSpeedGustMPH,Humidity,HourlyPrecipIn,Conditions,Clouds,dailyrainin,SolarRadiationWatts/m^2,SoftwareType,DateUTC
2013-08-19 00:02:00,62.4,56.5,29.78,NE,37,0.0,0.0,81,0.00,,,0.00,0.0,WeatherDisplay:10.37,2013-08-19 07:02:00,
2013-08-19 00:07:00,62.1,56.2,29.78,NE,37,0.0,0.0,81,0.00,,,0.00,0.0,WeatherDisplay:10.37,2013-08-19 07:07:00,
2013-08-19 00:12:00,62.1,56.2,29.77,NE,37,0.0,0.0,81,0.00,,,0.00,0.0,WeatherDisplay:10.37,2013-08-19 07:12:00,
2013-08-19 00:17:00,61.9,56.3,29.77,NE,37,0.0,0.0,82,0.00,,,0.00,0.0,WeatherDisplay:10.37,2013-08-19 07:17:00,
2013-08-19 00:22:00,61.9,56.3,29.78,NE,37,0.0,0.0,82,0.00,,,0.00,0.0,WeatherDisplay:10.37,2013-08-19 07:22:00,
2013-08-19 00:27:00,61.9,56.3,29.79,NE,37,0.9,2.3,82,0.00,,,0.00,0.0,WeatherDisplay:10.37,2013-08-19 07:27:00,
2013-08-19 00:32:00,61.9,56.3,29.79,NE,37,0.0,0.0,82,0.00,,,0.00,0.0,WeatherDisplay:10.37,2013-08-19 07:32:00,
2013-08-19 00:37:00,61.8,56.2,29.78,NE,37,0.0,0.0,82,0.00,,,0.00,0.0,WeatherDisplay:10.37,2013-08-19 07:37:00,
2013-08-19 00:42:00,61.8,56.2,29.78,NE,37,0.0,0.0,82,0.00,,,0.00,0.0,WeatherDisplay:10.37,2013-08-19 07:42:00,
2013-08-19 00:47:00,62.1,56.5,29.78,NE,37,0.2,0.0,82,0.00,,,0.00,0.0,WeatherDisplay:10.37,2013-08-19 07:47:00,
2013-08-19 00:52:00,62.0,56.4,29.78,NE,37,0.7,1.2,82,0.00,,,0.00,0.0,WeatherDisplay:10.37,2013-08-19 07:52:00,
2013-08-19 00:57:00,61.9,56.3,29.77,NE,37,0.0,1.2,82,0.00,,,0.00,0.0,WeatherDisplay:10.37,2013-08-19 07:57:00,
2013-08-19 01:02:00,61.7,56.1,29.77,NE,37,0.0,0.0,82,0.00,,,0.00,0.0,WeatherDisplay:10.37,2013-08-19 08:02:00,
2013-08-19 01:07:00,61.5,56.0,29.78,NE,37,0.0,0.0,82,0.00,,,0.00,0.0,WeatherDisplay:10.37,2013-08-19 08:07:00,
2013-08-19 01:12:00,61.4,55.9,29.78,NE,37,0.0,0.0,82,0.00,,,0.00,0.0,WeatherDisplay:10.37,2013-08-19 08:12:00,
2013-08-19 01:17:00,61.2,56.0,29.78,NE,37,0.0,0.0,83,0.00,,,0.00,0.0,WeatherDisplay:10.37,2013-08-19 08:17:00,
2013-08-19 01:22:00,61.1,55.9,29.78,NE,37,0.0,0.0,83,0.00,,,0.00,0.0,WeatherDisplay:10.37,2013-08-19 08:22:00,
2013-08-19 01:27:00,60.9,55.7,29.78,NE,37,0.0,0.0,83,0.00,,,0.00,0.0,WeatherDisplay:10.37,2013-08-19 08:27:00,
2013-08-19 01:32:00,60.9,55.7,29.78,NE,37,0.0,0.0,83,0.00,,,0.00,0.0,WeatherDisplay:10.37,2013-08-19 08:32:00,
2013-08-19 01:37:00,60.9,56.0,29.78,NE,37,0.0,0.0,84,0.00,,,0.00,0.0,WeatherDisplay:10.37,2013-08-19 08:37:00,
2013-08-19 01:42:00,61.0,55.8,29.78,NE,37,0.0,0.0,83,0.00,,,0.00,0.0,WeatherDisplay:10.37,2013-08-19 08:42:00,
2013-08-19 01:47:00,60.9,56.0,29.78,NE,37,0.0,0.0,84,0.00,,,0.00,0.0,WeatherDisplay:10.37,2013-08-19 08:47:00,
2013-08-19 01:52:00,60.9,56.0,29.78,NE,37,0.0,0.0,84,0.00,,,0.00,0.0,WeatherDisplay:10.37,2013-08-19 08:52:00,
2013-08-19 01:57:00,60.7,55.8,29.77,NE,37,0.0,1.2,84,0.00,,,0.00,0.0,WeatherDisplay:10.37,2013-08-19 08:57:00,
2013-08-19 02:02:00,60.7,55.8,29.77,NE,37,0.0,0.0,84,0.00,,,0.00,0.0,WeatherDisplay:10.37,2013-08-19 09:02:00,
2013-08-19 02:07:00,60.7,55.8,29.77,NE,37,0.0,0.0,84,0.00,,,0.00,0.0,WeatherDisplay:10.37,2013-08-19 09:07:00,
2013-08-19 02:12:00,60.8,55.9,29.77,NE,37,0.0,0.0,84,0.00,,,0.00,0.0,WeatherDisplay:10.37,2013-08-19 09:12:00,
2013-08-19 02:17:00,60.6,55.7,29.77,NE,37,0.0,1.2,84,0.00,,,0.00,0.0,WeatherDisplay:10.37,2013-08-19 09:17:00,
2013-08-19 02:22:00,60.7,56.2,29.77,NE,37,0.0,0.0,85,0.00,,,0.00,0.0,WeatherDisplay:10.37,2013-08-19 09:22:00,
2013-08-19 02:27:00,60.7,56.2,29.77,NE,37,0.0,0.0,85,0.00,,,0.00,0.0,WeatherDisplay:10.37,2013-08-19 09:27:00,
2013-08-19 02:32:00,60.5,55.6,29.77,NE,37,0.0,0.0,84,0.00,,,0.00,0.0,WeatherDisplay:10.37,2013-08-19 09:32:00,
2013-08-19 02:37:00,60.6,56.1,29.77,NE,37,0.3,1.2,85,0.00,,,0.00,0.0,WeatherDisplay:10.37,2013-08-19 09:37:00,
2013-08-19 02:42:00,60.6,56.1,29.77,NE,37,0.0,0.0,85,0.00,,,0.00,0.0,WeatherDisplay:10.37,2013-08-19 09:42:00,
2013-08-19 02:47:00,60.5,56.0,29.77,NE,37,0.0,0.0,85,0.00,,,0.00,0.0,WeatherDisplay:10.37,2013-08-19 09:47:00,
2013-08-19 02:52:00,60.7,56.2,29.77,NE,37,0.3,1.2,85,0.00,,,0.00,0.0,WeatherDisplay:10.37,2013-08-19 09:52:00,
2013-08-19 02:57:00,60.9,56.4,29.76,NE,37,0.0,0.0,85,0.00,,,0.00,0.0,WeatherDisplay:10.37,2013-08-19 09:57:00,
2013-08-19 03:02:00,60.8,56.3,29.76,NE,37,0.0,0.0,85,0.00,,,0.00,0.0,WeatherDisplay:10.37,2013-08-19 10:02:00,
2013-08-19 03:07:00,60.6,56.1,29.76,NE,37,0.0,0.0,85,0.00,,,0.00,0.0,WeatherDisplay:10.37,2013-08-19 10:07:00,
2013-08-19 03:12:00,60.4,55.9,29.76,NE,37,0.0,0.0,85,0.00,,,0.00,0.0,WeatherDisplay:10.37,2013-08-19 10:12:00,
2013-08-19 03:17:00,60.2,55.7,29.77,NE,37,0.0,0.0,85,0.00,,,0.00,0.0,WeatherDisplay:10.37,2013-08-19 10:17:00,
2013-08-19 03:22:00,60.2,56.0,29.77,NE,37,0.0,0.0,86,0.00,,,0.00,0.0,WeatherDisplay:10.37,2013-08-19 10:22:00,
2013-08-19 03:27:00,60.2,56.0,29.77,NE,37,2.8,3.5,86,0.00,,,0.00,0.0,WeatherDisplay:10.37,2013-08-19 10:27:00,
2013-08-19 03:32:00,59.9,55.7,29.76,NE,37,0.0,0.0,86,0.00,,,0.00,0.0,WeatherDisplay:10.37,2013-08-19 10:32:00,
2013-08-19 03:37:00,59.8,55.6,29.76,NE,37,0.0,0.0,86,0.00,,,0.00,0.0,WeatherDisplay:10.37,2013-08-19 10:37:00,
2013-08-19 03:42:00,60.1,55.9,29.76,NE,37,0.0,0.0,86,0.00,,,0.00,0.0,WeatherDisplay:10.37,2013-08-19 10:42:00,
2013-08-19 03:47:00,60.1,55.9,29.76,NE,37,0.0,0.0,86,0.00,,,0.00,0.0,WeatherDisplay:10.37,2013-08-19 10:47:00,
2013-08-19 03:52:00,60.0,55.8,29.76,NE,37,0.0,0.0,86,0.00,,,0.00,0.0,WeatherDisplay:10.37,2013-08-19 10:52:00,
2013-08-19 03:57:00,59.9,55.7,29.76,NE,37,0.0,0.0,86,0.00,,,0.00,0.0,WeatherDisplay:10.37,2013-08-19 10:57:00,
2013-08-19 04:02:00,59.8,55.6,29.75,NE,37,0.0,0.0,86,0.00,,,0.00,0.0,WeatherDisplay:10.37,2013-08-19 11:02:00,
2013-08-19 04:07:00,59.7,55.5,29.76,NE,37,0.0,0.0,86,0.00,,,0.00,0.0,WeatherDisplay:10.37,2013-08-19 11:07:00,
2013-08-19 04:12:00,59.7,55.8,29.77,NE,37,0.0,0.0,87,0.00,,,0.00,0.0,WeatherDisplay:10.37,2013-08-19 11:12:00,
2013-08-19 04:17:00,59.6,55.7,29.77,NE,37,0.4,2.3,87,0.00,,,0.00,0.0,WeatherDisplay:10.37,2013-08-19 11:17:00,
2013-08-19 04:22:00,59.6,55.7,29.77,NE,37,0.0,2.3,87,0.00,,,0.00,0.0,WeatherDisplay:10.37,2013-08-19 11:22:00,
2013-08-19 04:27:00,59.8,55.9,29.77,NE,37,0.0,2.3,87,0.00,,,0.00,0.0,WeatherDisplay:10.37,2013-08-19 11:27:00,
2013-08-19 04:32:00,59.8,55.6,29.77,NE,37,0.3,1.2,86,0.00,,,0.00,0.0,WeatherDisplay:10.37,2013-08-19 11:32:00,
2013-08-19 04:37:00,60.0,55.8,29.77,NE,37,0.0,0.0,86,0.00,,,0.00,0.0,WeatherDisplay:10.37,2013-08-19 11:37:00,
2013-08-19 04:42:00,60.2,55.7,29.78,NE,37,2.8,4.0,85,0.00,,,0.00,0.0,WeatherDisplay:10.37,2013-08-19 11:42:00,
2013-08-19 04:47:00,60.2,55.7,29.79,NE,37,0.0,2.3,85,0.00,,,0.00,0.0,WeatherDisplay:10.37,2013-08-19 11:47:00,
2013-08-19 04:52:00,60.2,55.7,29.79,NE,37,0.1,3.5,85,0.00,,,0.00,0.0,WeatherDisplay:10.37,2013-08-19 11:52:00,
2013-08-19 04:57:00,60.4,55.9,29.78,NE,37,1.4,2.3,85,0.00,,,0.00,0.0,WeatherDisplay:10.37,2013-08-19 11:57:00,
2013-08-19 05:02:00,60.9,56.0,29.79,NE,37,0.0,0.0,84,0.00,,,0.00,0.0,WeatherDisplay:10.37,2013-08-19 12:02:00,
2013-08-19 05:07:00,60.8,55.6,29.79,NE,37,3.5,3.5,83,0.00,,,0.00,0.0,WeatherDisplay:10.37,2013-08-19 12:07:00,
2013-08-19 05:12:00,60.6,55.7,29.79,NE,37,0.0,0.0,84,0.00,,,0.00,0.0,WeatherDisplay:10.37,2013-08-19 12:12:00,
2013-08-19 05:17:00,60.3,55.4,29.79,NE,37,0.0,0.0,84,0.00,,,0.00,0.0,WeatherDisplay:10.37,2013-08-19 12:17:00,
2013-08-19 05:22:00,60.2,55.3,29.79,NE,37,0.0,0.0,84,0.00,,,0.00,0.0,WeatherDisplay:10.37,2013-08-19 12:22:00,
2013-08-19 05:27:00,60.1,55.2,29.79,NE,37,0.0,0.0,84,0.00,,,0.00,0.0,WeatherDisplay:10.37,2013-08-19 12:27:00,
2013-08-19 05:32:00,60.0,55.2,29.79,NE,37,0.0,0.0,84,0.00,,,0.00,0.0,WeatherDisplay:10.37,2013-08-19 12:32:00,
2013-08-19 05:37:00,59.8,55.0,29.79,NE,37,0.0,0.0,84,0.00,,,0.00,0.0,WeatherDisplay:10.37,2013-08-19 12:37:00,
2013-08-19 05:42:00,59.8,55.0,29.79,NE,37,0.0,0.0,84,0.00,,,0.00,0.0,WeatherDisplay:10.37,2013-08-19 12:42:00,
2013-08-19 05:47:00,59.8,55.0,29.79,NE,37,0.0,0.0,84,0.00,,,0.00,0.0,WeatherDisplay:10.37,2013-08-19 12:47:00,
2013-08-19 05:52:00,59.8,55.0,29.79,NE,37,0.0,0.0,84,0.00,,,0.00,0.0,WeatherDisplay:10.37,2013-08-19 12:52:00,
2013-08-19 05:57:00,59.9,55.4,29.79,NE,37,0.0,0.0,85,0.00,,,0.00,0.0,WeatherDisplay:10.37,2013-08-19 12:57:00,
2013-08-19 06:02:00,60.0,55.5,29.80,NE,37,0.0,0.0,85,0.00,,,0.00,0.0,WeatherDisplay:10.37,2013-08-19 13:02:00,
2013-08-19 06:07:00,60.0,55.5,29.80,NE,37,0.0,0.0,85,0.00,,,0.00,0.0,WeatherDisplay:10.37,2013-08-19 13:07:00,
2013-08-19 06:12:00,60.1,55.6,29.80,NE,37,0.0,0.0,85,0.00,,,0.00,0.0,WeatherDisplay:10.37,2013-08-19 13:12:00,
2013-08-19 06:17:00,60.3,55.4,29.80,NE,37,0.0,0.0,84,0.00,,,0.00,0.0,WeatherDisplay:10.37,2013-08-19 13:17:00,
2013-08-19 06:22:00,60.3,55.4,29.80,NE,37,0.0,0.0,84,0.00,,,0.00,0.0,WeatherDisplay:10.37,2013-08-19 13:22:00,
2013-08-19 06:27:00,60.3,55.4,29.80,NE,37,0.0,0.0,84,0.00,,,0.00,0.0,WeatherDisplay:10.37,2013-08-19 13:27:00,
2013-08-19 06:32:00,60.4,55.5,29.80,NE,37,0.0,0.0,84,0.00,,,0.00,0.0,WeatherDisplay:10.37,2013-08-19 13:32:00,
2013-08-19 06:37:00,61.1,55.9,29.81,NNE,32,0.0,0.0,83,0.00,,,0.00,0.0,WeatherDisplay:10.37,2013-08-19 13:37:00,
2013-08-19 06:42:00,61.4,55.9,29.81,NNE,32,0.0,0.0,82,0.00,,,0.00,7.0,WeatherDisplay:10.37,2013-08-19 13:42:00,
2013-08-19 06:47:00,61.3,55.8,29.81,NNE,32,0.0,0.0,82,0.00,,,0.00,11.0,WeatherDisplay:10.37,2013-08-19 13:47:00,
2013-08-19 06:52:00,61.1,55.9,29.81,NNE,32,0.0,0.0,83,0.00,,,0.00,12.0,WeatherDisplay:10.37,2013-08-19 13:52:00,
2013-08-19 06:57:00,61.1,55.9,29.81,NNE,32,0.0,0.0,83,0.00,,,0.00,16.0,WeatherDisplay:10.37,2013-08-19 13:57:00,
2013-08-19 07:02:00,61.1,55.9,29.81,NNE,33,0.0,0.0,83,0.00,,,0.00,16.0,WeatherDisplay:10.37,2013-08-19 14:02:00,
2013-08-19 07:07:00,61.1,56.2,29.81,NNE,33,0.0,0.0,84,0.00,CLR,,0.00,21.0,WeatherDisplay:10.37,2013-08-19 14:07:00,
2013-08-19 07:12:00,61.1,56.2,29.81,NNE,33,0.0,0.0,84,0.00,CLR,,0.00,26.0,WeatherDisplay:10.37,2013-08-19 14:12:00,
2013-08-19 07:17:00,61.1,56.2,29.81,NNE,33,0.0,0.0,84,0.00,CLR,,0.00,35.0,WeatherDisplay:10.37,2013-08-19 14:17:00,
2013-08-19 07:22:00,61.2,56.3,29.82,NNE,33,0.0,0.0,84,0.00,CLR,,0.00,42.0,WeatherDisplay:10.37,2013-08-19 14:22:00,
2013-08-19 07:27:00,61.4,56.5,29.82,NNE,33,0.0,0.0,84,0.00,CLR,,0.00,51.0,WeatherDisplay:10.37,2013-08-19 14:27:00,
2013-08-19 07:32:00,62.1,56.9,29.82,NNE,33,0.0,0.0,83,0.00,CLR,,0.00,56.0,WeatherDisplay:10.37,2013-08-19 14:32:00,
2013-08-19 07:37:00,63.4,57.1,29.82,NNE,33,0.0,0.0,80,0.00,FEW,,0.00,60.0,WeatherDisplay:10.37,2013-08-19 14:37:00,
2013-08-19 07:42:00,64.0,56.6,29.82,NNE,28,0.0,0.0,77,0.00,SCT,,0.00,56.0,WeatherDisplay:10.37,2013-08-19 14:42:00,
2013-08-19 07:47:00,64.8,56.7,29.82,NNE,28,0.0,0.0,75,0.00,SCT,,0.00,56.0,WeatherDisplay:10.37,2013-08-19 14:47:00,
2013-08-19 07:52:00,64.9,56.8,29.82,NNE,25,0.0,0.0,75,0.00,SCT,,0.00,67.0,WeatherDisplay:10.37,2013-08-19 14:52:00,
2013-08-19 07:57:00,65.8,56.1,29.83,SSE,164,0.3,2.0,71,0.00,SCT,,0.00,79.0,WeatherDisplay:10.37,2013-08-19 14:57:00,
2013-08-19 08:02:00,66.0,56.3,29.83,SSE,165,0.0,3.5,71,0.00,SCT,,0.00,93.0,WeatherDisplay:10.37,2013-08-19 15:02:00,
2013-08-19 08:07:00,65.7,57.6,29.83,SSE,164,0.0,0.0,75,0.00,SCT,,0.00,97.0,WeatherDisplay:10.37,2013-08-19 15:07:00,
2013-08-19 08:12:00,65.6,57.5,29.83,SSE,165,0.2,1.2,75,0.00,FEW,,0.00,130.0,WeatherDisplay:10.37,2013-08-19 15:12:00,
2013-08-19 08:17:00,65.6,57.8,29.84,SE,146,2.1,4.0,76,0.00,CLR,,0.00,220.0,WeatherDisplay:10.37,2013-08-19 15:17:00,
2013-08-19 08:22:00,65.9,58.1,29.84,ESE,104,2.7,3.5,76,0.00,CLR,,0.00,320.0,WeatherDisplay:10.37,2013-08-19 15:22:00,
2013-08-19 08:27:00,66.4,58.2,29.85,ENE,74,2.3,4.0,75,0.00,CLR,,0.00,313.0,WeatherDisplay:10.37,2013-08-19 15:27:00,
2013-08-19 08:32:00,67.0,58.4,29.85,ENE,71,2.1,3.5,74,0.00,CLR,,0.00,322.0,WeatherDisplay:10.37,2013-08-19 15:32:00,
2013-08-19 08:37:00,68.2,58.4,29.85,ENE,71,0.8,3.5,71,0.00,CLR,,0.00,346.0,WeatherDisplay:10.37,2013-08-19 15:37:00,
2013-08-19 08:42:00,68.9,59.1,29.84,ENE,71,0.2,2.3,71,0.00,CLR,,0.00,371.0,WeatherDisplay:10.37,2013-08-19 15:42:00,
2013-08-19 08:47:00,69.4,59.2,29.84,ENE,71,0.5,1.2,70,0.00,CLR,,0.00,390.0,WeatherDisplay:10.37,2013-08-19 15:47:00,
2013-08-19 08:52:00,70.8,58.9,29.84,ENE,71,2.0,3.5,66,0.00,CLR,,0.00,396.0,WeatherDisplay:10.37,2013-08-19 15:52:00,
2013-08-19 08:57:00,71.5,59.1,29.85,ENE,71,1.5,3.5,65,0.00,CLR,,0.00,406.0,WeatherDisplay:10.37,2013-08-19 15:57:00,
2013-08-19 09:02:00,72.0,58.7,29.84,ENE,63,0.5,2.3,63,0.00,CLR,,0.00,411.0,WeatherDisplay:10.37,2013-08-19 16:02:00,
2013-08-19 09:07:00,72.5,58.3,29.84,ENE,63,0.0,1.2,61,0.00,CLR,,0.00,418.0,WeatherDisplay:10.37,2013-08-19 16:07:00,
2013-08-19 09:12:00,73.3,58.1,29.84,ENE,63,0.5,3.5,59,0.00,CLR,,0.00,434.0,WeatherDisplay:10.37,2013-08-19 16:12:00,
2013-08-19 09:17:00,73.9,57.7,29.84,ENE,64,0.0,2.3,57,0.00,CLR,,0.00,448.0,WeatherDisplay:10.37,2013-08-19 16:17:00,
2013-08-19 09:22:00,73.7,58.0,29.84,ENE,71,2.3,3.5,58,0.00,CLR,,0.00,461.0,WeatherDisplay:10.37,2013-08-19 16:22:00,
2013-08-19 09:27:00,74.5,57.3,29.84,ENE,78,3.1,6.9,55,0.00,CLR,,0.00,476.0,WeatherDisplay:10.37,2013-08-19 16:27:00,
2013-08-19 09:32:00,74.8,58.1,29.83,East,81,0.0,0.0,56,0.00,CLR,,0.00,494.0,WeatherDisplay:10.37,2013-08-19 16:32:00,
2013-08-19 09:37:00,75.6,58.3,29.84,East,80,0.2,2.0,55,0.00,CLR,,0.00,506.0,WeatherDisplay:10.37,2013-08-19 16:37:00,
2013-08-19 09:42:00,75.6,57.8,29.84,WNW,294,0.2,1.2,54,0.00,CLR,,0.00,524.0,WeatherDisplay:10.37,2013-08-19 16:42:00,
2013-08-19 09:47:00,76.6,57.7,29.84,WNW,298,1.1,3.5,52,0.00,CLR,,0.00,538.0,WeatherDisplay:10.37,2013-08-19 16:47:00,
2013-08-19 09:52:00,77.1,58.6,29.84,WNW,298,0.5,2.3,53,0.00,CLR,,0.00,552.0,WeatherDisplay:10.37,2013-08-19 16:52:00,
2013-08-19 09:57:00,78.1,58.5,29.84,WNW,298,1.2,3.5,51,0.00,CLR,,0.00,568.0,WeatherDisplay:10.37,2013-08-19 16:57:00,
2013-08-19 10:02:00,78.3,58.7,29.84,WNW,292,1.7,1.7,51,0.00,CLR,,0.00,589.0,WeatherDisplay:10.37,2013-08-19 17:02:00,
2013-08-19 10:07:00,77.4,57.9,29.84,West,277,1.5,3.5,51,0.00,CLR,,0.00,598.0,WeatherDisplay:10.37,2013-08-19 17:07:00,
2013-08-19 10:12:00,78.1,59.0,29.84,West,274,0.9,3.5,52,0.00,CLR,,0.00,608.0,WeatherDisplay:10.37,2013-08-19 17:12:00,
2013-08-19 10:17:00,77.6,58.6,29.84,SW,223,1.9,3.5,52,0.00,CLR,,0.00,626.0,WeatherDisplay:10.37,2013-08-19 17:17:00,
2013-08-19 10:22:00,78.4,59.3,29.84,ESE,121,0.3,1.2,52,0.00,CLR,,0.00,636.0,WeatherDisplay:10.37,2013-08-19 17:22:00,
2013-08-19 10:27:00,78.6,59.0,29.84,NW,321,2.2,2.3,51,0.00,CLR,,0.00,649.0,WeatherDisplay:10.37,2013-08-19 17:27:00,
2013-08-19 10:32:00,78.7,59.0,29.84,SW,214,1.7,4.6,51,0.00,CLR,,0.00,661.0,WeatherDisplay:10.37,2013-08-19 17:32:00,
2013-08-19 10:37:00,78.6,59.5,29.84,SSE,159,0.7,2.3,52,0.00,CLR,,0.00,668.0,WeatherDisplay:10.37,2013-08-19 17:37:00,
2013-08-19 10:42:00,79.8,59.5,29.84,South,173,2.7,3.5,50,0.00,CLR,,0.00,680.0,WeatherDisplay:10.37,2013-08-19 17:42:00,
2013-08-19 10:47:00,78.9,58.7,29.84,South,181,3.3,4.6,50,0.00,CLR,,0.00,691.0,WeatherDisplay:10.37,2013-08-19 17:47:00,
2013-08-19 10:52:00,79.1,58.3,29.84,SSE,168,3.1,5.8,49,0.00,CLR,,0.00,703.0,WeatherDisplay:10.37,2013-08-19 17:52:00,
2013-08-19 10:57:00,79.4,58.6,29.85,South,178,0.5,2.3,49,0.00,CLR,,0.00,714.0,WeatherDisplay:10.37,2013-08-19 17:57:00,
2013-08-19 11:02:00,80.2,58.1,29.85,SSW,192,2.4,5.8,47,0.00,CLR,,0.00,722.0,WeatherDisplay:10.37,2013-08-19 18:02:00,
2013-08-19 11:07:00,80.2,58.1,29.85,South,178,2.5,5.8,47,0.00,CLR,,0.00,731.0,WeatherDisplay:10.37,2013-08-19 18:07:00,
2013-08-19 11:12:00,79.6,58.2,29.85,WNW,291,4.0,5.8,48,0.00,CLR,,0.00,737.0,WeatherDisplay:10.37,2013-08-19 18:12:00,
2013-08-19 11:17:00,80.3,58.8,29.85,ESE,117,1.1,3.5,48,0.00,CLR,,0.00,745.0,WeatherDisplay:10.37,2013-08-19 18:17:00,
2013-08-19 11:22:00,81.3,59.1,29.85,ENE,72,0.0,0.0,47,0.00,CLR,,0.00,765.0,WeatherDisplay:10.37,2013-08-19 18:22:00,
2013-08-19 11:27:00,81.2,58.5,29.85,SE,129,2.6,5.8,46,0.00,CLR,,0.00,768.0,WeatherDisplay:10.37,2013-08-19 18:27:00,
2013-08-19 11:32:00,80.1,58.0,29.85,SSW,192,5.5,6.9,47,0.00,CLR,,0.00,777.0,WeatherDisplay:10.37,2013-08-19 18:32:00,
2013-08-19 11:37:00,79.9,57.9,29.85,South,184,3.6,8.1,47,0.00,CLR,,0.00,786.0,WeatherDisplay:10.37,2013-08-19 18:37:00,
2013-08-19 11:42:00,80.3,58.2,29.85,SSW,196,2.1,3.5,47,0.00,CLR,,0.00,795.0,WeatherDisplay:10.37,2013-08-19 18:42:00,
2013-08-19 11:47:00,80.9,58.8,29.85,SSW,194,2.7,3.5,47,0.00,CLR,,0.00,803.0,WeatherDisplay:10.37,2013-08-19 18:47:00,
2013-08-19 11:52:00,81.0,58.3,29.84,SSW,192,2.2,4.6,46,0.00,CLR,,0.00,770.0,WeatherDisplay:10.37,2013-08-19 18:52:00,
2013-08-19 11:57:00,81.2,59.1,29.84,SSW,194,0.6,1.2,47,0.00,CLR,,0.00,805.0,WeatherDisplay:10.37,2013-08-19 18:57:00,
2013-08-19 12:02:00,81.5,58.1,29.84,SSW,207,3.8,5.0,45,0.00,CLR,,0.00,812.0,WeatherDisplay:10.37,2013-08-19 19:02:00,
2013-08-19 12:07:00,80.9,58.2,29.84,WNW,284,2.1,5.8,46,0.00,CLR,,0.00,826.0,WeatherDisplay:10.37,2013-08-19 19:07:00,
2013-08-19 12:12:00,81.4,58.6,29.84,West,269,2.4,5.8,46,0.00,CLR,,0.00,812.0,WeatherDisplay:10.37,2013-08-19 19:12:00,
2013-08-19 12:17:00,82.5,59.0,29.84,SSW,198,3.6,5.0,45,0.00,CLR,,0.00,831.0,WeatherDisplay:10.37,2013-08-19 19:17:00,
2013-08-19 12:22:00,83.0,58.2,29.84,South,175,2.1,4.6,43,0.00,CLR,,0.00,830.0,WeatherDisplay:10.37,2013-08-19 19:22:00,
2013-08-19 12:27:00,82.9,58.1,29.83,SSW,196,3.1,6.9,43,0.00,CLR,,0.00,840.0,WeatherDisplay:10.37,2013-08-19 19:27:00,
2013-08-19 12:32:00,83.8,58.3,29.83,West,281,1.4,1.4,42,0.00,CLR,,0.00,849.0,WeatherDisplay:10.37,2013-08-19 19:32:00,
2013-08-19 12:37:00,84.3,58.7,29.83,NW,306,3.5,5.8,42,0.00,CLR,,0.00,837.0,WeatherDisplay:10.37,2013-08-19 19:37:00,
2013-08-19 12:42:00,85.3,59.6,29.83,WNW,300,1.2,3.5,42,0.00,FEW,,0.00,817.0,WeatherDisplay:10.37,2013-08-19 19:42:00,
2013-08-19 12:47:00,86.0,58.9,29.83,SSE,165,1.1,5.8,40,0.00,CLR,,0.00,853.0,WeatherDisplay:10.37,2013-08-19 19:47:00,
2013-08-19 12:52:00,86.2,59.0,29.82,SSE,156,1.5,3.5,40,0.00,FEW,,0.00,536.0,WeatherDisplay:10.37,2013-08-19 19:52:00,
2013-08-19 12:57:00,85.1,58.1,29.82,South,179,4.8,10.4,40,0.00,CLR,,0.00,909.0,WeatherDisplay:10.37,2013-08-19 19:57:00,
2013-08-19 13:02:00,85.5,58.4,29.82,South,169,1.6,3.5,40,0.00,CLR,,0.00,940.0,WeatherDisplay:10.37,2013-08-19 20:02:00,
2013-08-19 13:07:00,86.5,59.3,29.82,South,180,1.4,3.5,40,0.00,SCT,,0.00,619.0,WeatherDisplay:10.37,2013-08-19 20:07:00,
2013-08-19 13:12:00,85.5,59.1,29.82,East,88,0.8,2.3,41,0.00,SCT,,0.00,612.0,WeatherDisplay:10.37,2013-08-19 20:12:00,
2013-08-19 13:17:00,85.7,58.6,29.82,South,187,2.5,2.5,40,0.00,BKN,,0.00,638.0,WeatherDisplay:10.37,2013-08-19 20:17:00,
2013-08-19 13:22:00,84.2,57.9,29.82,NW,311,3.2,4.6,41,0.00,BKN,,0.00,462.0,WeatherDisplay:10.37,2013-08-19 20:22:00,
2013-08-19 13:27:00,82.8,58.0,29.82,SSE,167,3.7,4.6,43,0.00,FEW,,0.00,782.0,WeatherDisplay:10.37,2013-08-19 20:27:00,
2013-08-19 13:32:00,81.9,57.8,29.82,SSW,194,4.4,8.1,44,0.00,CLR,,0.00,879.0,WeatherDisplay:10.37,2013-08-19 20:32:00,
2013-08-19 13:37:00,81.5,57.5,29.82,South,184,4.8,6.9,44,0.00,CLR,,0.00,879.0,WeatherDisplay:10.37,2013-08-19 20:37:00,
2013-08-19 13:42:00,81.6,58.2,29.82,South,184,4.4,6.9,45,0.00,FEW,,0.00,844.0,WeatherDisplay:10.37,2013-08-19 20:42:00,
2013-08-19 13:47:00,82.4,57.7,29.82,SSW,207,5.1,5.8,43,0.00,SCT,,0.00,838.0,WeatherDisplay:10.37,2013-08-19 20:47:00,
2013-08-19 13:52:00,82.0,57.9,29.82,SSW,211,4.1,8.1,44,0.00,FEW,,0.00,840.0,WeatherDisplay:10.37,2013-08-19 20:52:00,
2013-08-19 13:57:00,82.0,57.9,29.82,SSW,202,5.9,8.1,44,0.00,FEW,,0.00,809.0,WeatherDisplay:10.37,2013-08-19 20:57:00,
2013-08-19 14:02:00,81.6,57.6,29.82,SW,219,4.7,8.1,44,0.00,FEW,,0.00,798.0,WeatherDisplay:10.37,2013-08-19 21:02:00,
2013-08-19 14:07:00,81.9,58.5,29.82,South,184,4.2,8.1,45,0.00,FEW,,0.00,802.0,WeatherDisplay:10.37,2013-08-19 21:07:00,
2013-08-19 14:12:00,82.0,58.6,29.82,South,180,3.9,6.9,45,0.00,FEW,,0.00,844.0,WeatherDisplay:10.37,2013-08-19 21:12:00,
2013-08-19 14:17:00,82.0,58.6,29.82,SSW,195,3.2,6.0,45,0.00,FEW,,0.00,803.0,WeatherDisplay:10.37,2013-08-19 21:17:00,
2013-08-19 14:22:00,81.8,59.0,29.82,SSW,200,2.6,4.6,46,0.00,FEW,,0.00,840.0,WeatherDisplay:10.37,2013-08-19 21:22:00,
2013-08-19 14:27:00,82.2,59.4,29.82,South,183,3.5,9.2,46,0.00,FEW,,0.00,805.0,WeatherDisplay:10.37,2013-08-19 21:27:00,
2013-08-19 14:32:00,82.1,58.7,29.82,SSW,194,3.9,6.9,45,0.00,FEW,,0.00,842.0,WeatherDisplay:10.37,2013-08-19 21:32:00,
2013-08-19 14:37:00,81.6,58.8,29.82,SSW,197,5.5,6.9,46,0.00,SCT,,0.00,686.0,WeatherDisplay:10.37,2013-08-19 21:37:00,
2013-08-19 14:42:00,81.9,59.1,29.82,SSW,203,2.0,4.6,46,0.00,CLR,,0.00,907.0,WeatherDisplay:10.37,2013-08-19 21:42:00,
2013-08-19 14:47:00,82.4,58.9,29.82,SSE,163,3.9,8.1,45,0.00,SCT,,0.00,540.0,WeatherDisplay:10.37,2013-08-19 21:47:00,
2013-08-19 14:52:00,81.9,59.1,29.82,South,174,4.1,6.9,46,0.00,CLR,,0.00,840.0,WeatherDisplay:10.37,2013-08-19 21:52:00,
2013-08-19 14:57:00,80.9,58.8,29.82,South,176,3.6,5.8,47,0.00,CLR,,0.00,840.0,WeatherDisplay:10.37,2013-08-19 21:57:00,
2013-08-19 15:02:00,80.6,59.1,29.82,SSW,193,4.5,8.1,48,0.00,FEW,,0.00,768.0,WeatherDisplay:10.37,2013-08-19 22:02:00,
2013-08-19 15:07:00,80.1,58.6,29.82,SSE,168,2.8,4.6,48,0.00,FEW,,0.00,751.0,WeatherDisplay:10.37,2013-08-19 22:07:00,
2013-08-19 15:12:00,80.4,58.9,29.82,SSW,199,3.3,5.0,48,0.00,FEW,,0.00,737.0,WeatherDisplay:10.37,2013-08-19 22:12:00,
2013-08-19 15:17:00,80.9,58.8,29.82,SSW,194,1.2,4.6,47,0.00,FEW,,0.00,721.0,WeatherDisplay:10.37,2013-08-19 22:17:00,
2013-08-19 15:22:00,81.8,59.6,29.82,South,188,0.5,3.5,47,0.00,FEW,,0.00,729.0,WeatherDisplay:10.37,2013-08-19 22:22:00,
2013-08-19 15:27:00,81.7,58.9,29.82,SSE,166,5.8,10.4,46,0.00,FEW,,0.00,719.0,WeatherDisplay:10.37,2013-08-19 22:27:00,
2013-08-19 15:32:00,80.6,58.5,29.82,South,186,1.9,3.5,47,0.00,FEW,,0.00,712.0,WeatherDisplay:10.37,2013-08-19 22:32:00,
2013-08-19 15:37:00,80.2,58.7,29.81,South,184,1.9,6.9,48,0.00,FEW,,0.00,684.0,WeatherDisplay:10.37,2013-08-19 22:37:00,
2013-08-19 15:42:00,79.8,58.4,29.81,SSW,198,2.7,6.9,48,0.00,FEW,,0.00,675.0,WeatherDisplay:10.37,2013-08-19 22:42:00,
2013-08-19 15:47:00,79.3,58.5,29.81,South,188,4.0,5.8,49,0.00,FEW,,0.00,671.0,WeatherDisplay:10.37,2013-08-19 22:47:00,
2013-08-19 15:52:00,79.2,58.4,29.80,SSW,196,3.5,6.9,49,0.00,FEW,,0.00,661.0,WeatherDisplay:10.37,2013-08-19 22:52:00,
2013-08-19 15:57:00,79.0,58.2,29.80,SSW,200,5.3,5.8,49,0.00,FEW,,0.00,643.0,WeatherDisplay:10.37,2013-08-19 22:57:00,
2013-08-19 16:02:00,79.1,58.9,29.80,SSW,199,4.4,6.9,50,0.00,FEW,,0.00,615.0,WeatherDisplay:10.37,2013-08-19 23:02:00,
2013-08-19 16:07:00,78.8,58.6,29.80,South,179,4.0,4.0,50,0.00,FEW,,0.00,608.0,WeatherDisplay:10.37,2013-08-19 23:07:00,
2013-08-19 16:12:00,78.7,57.9,29.80,SW,222,7.0,11.5,49,0.00,FEW,,0.00,596.0,WeatherDisplay:10.37,2013-08-19 23:12:00,
2013-08-19 16:17:00,78.4,57.7,29.80,South,186,3.6,6.9,49,0.00,FEW,,0.00,584.0,WeatherDisplay:10.37,2013-08-19 23:17:00,
2013-08-19 16:22:00,78.6,57.8,29.80,SSW,197,5.8,7.0,49,0.00,FEW,,0.00,577.0,WeatherDisplay:10.37,2013-08-19 23:22:00,
2013-08-19 16:27:00,78.4,58.2,29.80,South,187,4.3,8.1,50,0.00,FEW,,0.00,561.0,WeatherDisplay:10.37,2013-08-19 23:27:00,
2013-08-19 16:32:00,78.5,57.7,29.80,South,188,4.3,4.6,49,0.00,FEW,,0.00,534.0,WeatherDisplay:10.37,2013-08-19 23:32:00,
2013-08-19 16:37:00,78.4,57.7,29.79,SSW,200,4.1,5.8,49,0.00,FEW,,0.00,524.0,WeatherDisplay:10.37,2013-08-19 23:37:00,
2013-08-19 16:42:00,79.0,58.2,29.79,SSW,196,0.4,2.3,49,0.00,FEW,,0.00,515.0,WeatherDisplay:10.37,2013-08-19 23:42:00,
2013-08-19 16:47:00,78.7,57.9,29.79,SSE,165,5.4,10.4,49,0.00,SCT,,0.00,497.0,WeatherDisplay:10.37,2013-08-19 23:47:00,
2013-08-19 16:52:00,78.4,57.7,29.79,SSW,192,4.3,7.0,49,0.00,SCT,,0.00,482.0,WeatherDisplay:10.37,2013-08-19 23:52:00,
2013-08-19 16:57:00,78.3,57.6,29.79,South,190,5.0,9.2,49,0.00,SCT,,0.00,459.0,WeatherDisplay:10.37,2013-08-19 23:57:00,
2013-08-19 17:02:00,78.2,58.0,29.79,SSW,198,3.6,6.9,50,0.00,SCT,,0.00,443.0,WeatherDisplay:10.37,2013-08-20 00:02:00,
2013-08-19 17:07:00,77.9,57.8,29.79,South,178,6.6,9.0,50,0.00,SCT,,0.00,432.0,WeatherDisplay:10.37,2013-08-20 00:07:00,
2013-08-19 17:12:00,77.5,57.4,29.79,South,186,6.0,10.4,50,0.00,SCT,,0.00,420.0,WeatherDisplay:10.37,2013-08-20 00:12:00,
2013-08-19 17:17:00,77.6,57.5,29.79,South,190,3.8,6.9,50,0.00,SCT,,0.00,404.0,WeatherDisplay:10.37,2013-08-20 00:17:00,
2013-08-19 17:22:00,77.6,57.5,29.78,South,188,4.5,4.6,50,0.00,SCT,,0.00,388.0,WeatherDisplay:10.37,2013-08-20 00:22:00,
2013-08-19 17:27:00,77.6,57.5,29.78,South,180,5.3,9.2,50,0.00,SCT,,0.00,378.0,WeatherDisplay:10.37,2013-08-20 00:27:00,
2013-08-19 17:32:00,77.4,57.3,29.78,SSW,198,4.7,6.9,50,0.00,SCT,,0.00,362.0,WeatherDisplay:10.37,2013-08-20 00:32:00,
2013-08-19 17:37:00,77.3,57.8,29.78,South,175,5.1,6.9,51,0.00,SCT,,0.00,357.0,WeatherDisplay:10.37,2013-08-20 00:37:00,
2013-08-19 17:42:00,77.3,57.8,29.78,SSW,193,6.0,8.1,51,0.00,SCT,,0.00,338.0,WeatherDisplay:10.37,2013-08-20 00:42:00,
2013-08-19 17:47:00,77.1,57.6,29.78,South,173,2.0,4.6,51,0.00,SCT,,0.00,325.0,WeatherDisplay:10.37,2013-08-20 00:47:00,
2013-08-19 17:52:00,77.2,57.7,29.78,South,189,3.3,4.6,51,0.00,SCT,,0.00,304.0,WeatherDisplay:10.37,2013-08-20 00:52:00,
2013-08-19 17:57:00,76.9,57.4,29.78,South,183,3.6,6.9,51,0.00,SCT,,0.00,288.0,WeatherDisplay:10.37,2013-08-20 00:57:00,
2013-08-19 18:02:00,76.7,57.2,29.78,SSW,194,4.4,8.1,51,0.00,SCT,,0.00,271.0,WeatherDisplay:10.37,2013-08-20 01:02:00,
2013-08-19 18:07:00,76.3,57.4,29.78,South,180,3.6,6.9,52,0.00,SCT,,0.00,257.0,WeatherDisplay:10.37,2013-08-20 01:07:00,
2013-08-19 18:12:00,76.2,57.3,29.78,SSE,157,3.1,8.1,52,0.00,SCT,,0.00,239.0,WeatherDisplay:10.37,2013-08-20 01:12:00,
2013-08-19 18:17:00,76.1,57.2,29.78,South,187,2.1,4.6,52,0.00,BKN,,0.00,62.0,WeatherDisplay:10.37,2013-08-20 01:17:00,
2013-08-19 18:22:00,75.5,57.2,29.78,South,186,5.4,8.1,53,0.00,BKN,,0.00,70.0,WeatherDisplay:10.37,2013-08-20 01:22:00,
2013-08-19 18:27:00,74.4,57.2,29.78,South,184,4.3,10.4,55,0.00,BKN,,0.00,53.0,WeatherDisplay:10.37,2013-08-20 01:27:00,
2013-08-19 18:32:00,73.3,56.7,29.78,SSW,204,5.5,5.8,56,0.00,BKN,,0.00,49.0,WeatherDisplay:10.37,2013-08-20 01:32:00,
2013-08-19 18:37:00,72.9,56.8,29.78,SSW,200,4.7,4.7,57,0.00,BKN,,0.00,49.0,WeatherDisplay:10.37,2013-08-20 01:37:00,
2013-08-19 18:42:00,72.7,56.6,29.78,South,189,3.0,5.8,57,0.00,BKN,,0.00,44.0,WeatherDisplay:10.37,2013-08-20 01:42:00,
2013-08-19 18:47:00,72.6,56.5,29.78,SSW,193,3.3,6.9,57,0.00,BKN,,0.00,42.0,WeatherDisplay:10.37,2013-08-20 01:47:00,
2013-08-19 18:52:00,72.2,56.6,29.77,SSW,194,1.5,4.6,58,0.00,BKN,,0.00,39.0,WeatherDisplay:10.37,2013-08-20 01:52:00,
2013-08-19 18:57:00,71.8,56.2,29.78,SSW,194,1.2,3.5,58,0.00,BKN,,0.00,35.0,WeatherDisplay:10.37,2013-08-20 01:57:00,
2013-08-19 19:02:00,71.7,56.1,29.78,SSW,192,2.5,3.5,58,0.00,BKN,,0.00,33.0,WeatherDisplay:10.37,2013-08-20 02:02:00,
2013-08-19 19:07:00,71.9,56.3,29.78,SSE,161,0.5,3.5,58,0.00,BKN,,0.00,32.0,WeatherDisplay:10.37,2013-08-20 02:07:00,
2013-08-19 19:12:00,72.2,56.6,29.78,SSE,161,0.1,1.2,58,0.00,BKN,,0.00,28.0,WeatherDisplay:10.37,2013-08-20 02:12:00,
2013-08-19 19:17:00,71.9,57.3,29.78,SSE,160,0.6,2.3,60,0.00,BKN,,0.00,25.0,WeatherDisplay:10.37,2013-08-20 02:17:00,
2013-08-19 19:22:00,71.5,56.9,29.78,SSE,157,0.5,1.2,60,0.00,BKN,,0.00,23.0,WeatherDisplay:10.37,2013-08-20 02:22:00,
2013-08-19 19:27:00,70.5,56.4,29.78,SSE,157,0.0,0.0,61,0.00,BKN,,0.00,19.0,WeatherDisplay:10.37,2013-08-20 02:27:00,
2013-08-19 19:32:00,69.7,56.5,29.78,SSE,157,0.0,0.0,63,0.00,BKN,,0.00,16.0,WeatherDisplay:10.37,2013-08-20 02:32:00,
2013-08-19 19:37:00,68.9,56.2,29.78,SSE,157,0.3,2.3,64,0.00,BKN,,0.00,14.0,WeatherDisplay:10.37,2013-08-20 02:37:00,
2013-08-19 19:42:00,68.9,56.2,29.78,SSE,157,0.2,1.2,64,0.00,BKN,,0.00,11.0,WeatherDisplay:10.37,2013-08-20 02:42:00,
2013-08-19 19:47:00,68.5,55.8,29.78,SSE,150,0.6,3.5,64,0.00,BKN,,0.00,7.0,WeatherDisplay:10.37,2013-08-20 02:47:00,
2013-08-19 19:52:00,67.9,55.7,29.78,SSE,167,0.9,2.3,65,0.00,,,0.00,0.0,WeatherDisplay:10.37,2013-08-20 02:52:00,
2013-08-19 19:57:00,67.0,55.3,29.78,South,172,3.2,4.6,66,0.00,,,0.00,0.0,WeatherDisplay:10.37,2013-08-20 02:57:00,
2013-08-19 20:02:00,66.3,55.0,29.78,SSE,159,3.0,4.6,67,0.00,,,0.00,0.0,WeatherDisplay:10.37,2013-08-20 03:02:00,
2013-08-19 20:07:00,66.1,55.2,29.78,SSW,200,1.2,1.2,68,0.00,,,0.00,0.0,WeatherDisplay:10.37,2013-08-20 03:07:00,
2013-08-19 20:12:00,66.0,55.1,29.79,SSW,206,3.3,3.5,68,0.00,,,0.00,0.0,WeatherDisplay:10.37,2013-08-20 03:12:00,
2013-08-19 20:17:00,65.4,54.6,29.79,SSW,196,3.5,5.8,68,0.00,,,0.00,0.0,WeatherDisplay:10.37,2013-08-20 03:17:00,
2013-08-19 20:22:00,65.0,54.6,29.79,SSE,161,4.7,8.1,69,0.00,,,0.00,0.0,WeatherDisplay:10.37,2013-08-20 03:22:00,
2013-08-19 20:27:00,64.3,54.7,29.80,South,186,4.2,6.9,71,0.00,,,0.00,0.0,WeatherDisplay:10.37,2013-08-20 03:27:00,
2013-08-19 20:32:00,64.0,54.8,29.80,South,188,2.1,4.6,72,0.00,,,0.00,0.0,WeatherDisplay:10.37,2013-08-20 03:32:00,
2013-08-19 20:37:00,63.7,54.9,29.80,WSW,246,1.0,3.5,73,0.00,,,0.00,0.0,WeatherDisplay:10.37,2013-08-20 03:37:00,
2013-08-19 20:42:00,63.4,54.6,29.81,WSW,256,0.5,2.3,73,0.00,,,0.00,0.0,WeatherDisplay:10.37,2013-08-20 03:42:00,
2013-08-19 20:47:00,63.3,54.9,29.81,South,190,0.8,3.5,74,0.00,,,0.00,0.0,WeatherDisplay:10.37,2013-08-20 03:47:00,
2013-08-19 20:52:00,63.3,54.9,29.81,South,190,1.9,2.3,74,0.00,,,0.00,0.0,WeatherDisplay:10.37,2013-08-20 03:52:00,
2013-08-19 20:57:00,63.3,54.5,29.82,SSW,192,2.9,4.6,73,0.00,,,0.00,0.0,WeatherDisplay:10.37,2013-08-20 03:57:00,
2013-08-19 21:01:00,63.3,54.5,29.82,South,179,3.6,4.6,73,0.00,,,0.00,0.0,WeatherDisplay:10.37,2013-08-20 04:01:00,
2013-08-19 21:02:00,63.3,54.9,29.82,South,179,1.3,2.3,74,0.00,,,0.00,0.0,WeatherDisplay:10.37,2013-08-20 04:02:00,
2013-08-19 21:03:00,63.3,54.9,29.82,South,179,2.0,3.5,74,0.00,,,0.00,0.0,WeatherDisplay:10.37,2013-08-20 04:03:00,
2013-08-19 21:05:00,63.3,54.9,29.81,SSW,207,2.9,4.6,74,0.00,,,0.00,0.0,WeatherDisplay:10.37,2013-08-20 04:05:00,
2013-08-19 21:09:00,63.3,54.9,29.81,SW,227,4.1,6.9,74,0.00,,,0.00,0.0,WeatherDisplay:10.37,2013-08-20 04:09:00,
2013-08-19 21:14:00,63.6,54.8,29.82,South,183,3.5,9.2,73,0.00,,,0.00,0.0,WeatherDisplay:10.37,2013-08-20 04:14:00,
2013-08-19 21:19:00,63.9,54.7,29.82,South,179,0.7,3.5,72,0.00,,,0.00,0.0,WeatherDisplay:10.37,2013-08-20 04:19:00,
2013-08-19 21:24:00,64.1,54.5,29.83,South,186,2.0,2.0,71,0.00,,,0.00,0.0,WeatherDisplay:10.37,2013-08-20 04:24:00,
2013-08-19 21:29:00,64.3,54.7,29.83,South,186,0.7,2.3,71,0.00,,,0.00,0.0,WeatherDisplay:10.37,2013-08-20 04:29:00,
2013-08-19 21:34:00,64.4,54.8,29.83,South,186,1.8,3.5,71,0.00,,,0.00,0.0,WeatherDisplay:10.37,2013-08-20 04:34:00,
2013-08-19 21:39:00,64.3,54.7,29.84,NNW,329,0.8,3.5,71,0.00,,,0.00,0.0,WeatherDisplay:10.37,2013-08-20 04:39:00,
2013-08-19 21:44:00,63.8,54.6,29.84,SSW,196,2.7,5.8,72,0.00,,,0.00,0.0,WeatherDisplay:10.37,2013-08-20 04:44:00,
2013-08-19 21:49:00,63.3,54.5,29.84,SSW,206,0.6,3.5,73,0.00,,,0.00,0.0,WeatherDisplay:10.37,2013-08-20 04:49:00,
2013-08-19 21:54:00,63.0,54.6,29.84,SSW,206,0.0,1.2,74,0.00,,,0.00,0.0,WeatherDisplay:10.37,2013-08-20 04:54:00,
2013-08-19 21:59:00,62.9,54.9,29.83,SSW,200,1.8,5.8,75,0.00,,,0.00,0.0,WeatherDisplay:10.37,2013-08-20 04:59:00,
2013-08-19 22:04:00,62.8,54.8,29.84,SSW,199,1.6,3.5,75,0.00,,,0.00,0.0,WeatherDisplay:10.37,2013-08-20 05:04:00,
2013-08-19 22:09:00,62.7,54.7,29.83,SSW,199,1.7,4.6,75,0.00,,,0.00,0.0,WeatherDisplay:10.37,2013-08-20 05:09:00,
2013-08-19 22:14:00,62.6,54.6,29.83,SSW,198,3.5,3.5,75,0.00,,,0.00,0.0,WeatherDisplay:10.37,2013-08-20 05:14:00,
2013-08-19 22:19:00,62.5,54.8,29.83,SW,222,0.2,1.2,76,0.00,,,0.00,0.0,WeatherDisplay:10.37,2013-08-20 05:19:00,
2013-08-19 22:24:00,62.5,54.8,29.83,SW,226,1.2,3.5,76,0.00,,,0.00,0.0,WeatherDisplay:10.37,2013-08-20 05:24:00,
2013-08-19 22:29:00,62.5,54.8,29.84,SW,227,1.8,3.5,76,0.00,,,0.00,0.0,WeatherDisplay:10.37,2013-08-20 05:29:00,
2013-08-19 22:34:00,62.8,55.1,29.84,SW,227,0.0,0.0,76,0.00,,,0.00,0.0,WeatherDisplay:10.37,2013-08-20 05:34:00,
2013-08-19 22:39:00,62.7,55.4,29.84,SW,226,0.0,1.2,77,0.00,,,0.00,0.0,WeatherDisplay:10.37,2013-08-20 05:39:00,
2013-08-19 22:44:00,62.5,55.5,29.84,SW,227,0.0,0.0,78,0.00,,,0.00,0.0,WeatherDisplay:10.37,2013-08-20 05:44:00,
2013-08-19 22:49:00,62.2,55.3,29.85,SW,226,0.0,0.0,78,0.00,,,0.00,0.0,WeatherDisplay:10.37,2013-08-20 05:49:00,
2013-08-19 22:54:00,62.1,55.2,29.84,SW,223,2.2,3.5,78,0.00,,,0.00,0.0,WeatherDisplay:10.37,2013-08-20 05:54:00,
2013-08-19 22:59:00,62.0,55.1,29.84,SSW,211,0.2,2.3,78,0.00,,,0.00,0.0,WeatherDisplay:10.37,2013-08-20 05:59:00,
2013-08-19 23:04:00,61.9,55.0,29.84,SSW,211,1.9,3.5,78,0.00,,,0.00,0.0,WeatherDisplay:10.37,2013-08-20 06:04:00,
2013-08-19 23:09:00,61.9,55.0,29.84,SSW,192,3.5,5.8,78,0.00,,,0.00,0.0,WeatherDisplay:10.37,2013-08-20 06:09:00,
2013-08-19 23:14:00,61.8,54.9,29.84,SSW,192,0.2,2.3,78,0.00,,,0.00,0.0,WeatherDisplay:10.37,2013-08-20 06:14:00,
2013-08-19 23:19:00,61.7,54.8,29.84,SSW,192,0.2,3.5,78,0.00,,,0.00,0.0,WeatherDisplay:10.37,2013-08-20 06:19:00,
2013-08-19 23:24:00,61.6,55.0,29.84,SSW,192,0.0,0.0,79,0.00,,,0.00,0.0,WeatherDisplay:10.37,2013-08-20 06:24:00,
2013-08-19 23:29:00,61.5,54.9,29.84,SSW,192,0.0,0.0,79,0.00,,,0.00,0.0,WeatherDisplay:10.37,2013-08-20 06:29:00,
2013-08-19 23:34:00,61.4,54.8,29.85,South,191,1.6,2.3,79,0.00,,,0.00,0.0,WeatherDisplay:10.37,2013-08-20 06:34:00,
2013-08-19 23:39:00,61.2,55.0,29.86,South,191,0.0,0.0,80,0.00,,,0.00,0.0,WeatherDisplay:10.37,2013-08-20 06:39:00,
2013-08-19 23:44:00,60.9,55.0,29.86,South,191,0.0,0.0,81,0.00,,,0.00,0.0,WeatherDisplay:10.37,2013-08-20 06:44:00,
2013-08-19 23:49:00,60.9,55.4,29.86,South,191,0.0,0.0,82,0.00,,,0.00,0.0,WeatherDisplay:10.37,2013-08-20 06:49:00,
2013-08-19 23:54:00,61.1,55.2,29.86,NE,53,0.3,3.0,81,0.00,,,0.00,0.0,WeatherDisplay:10.37,2013-08-20 06:54:00,
2013-08-19 23:59:00,61.2,55.3,29.86,ESE,116,3.0,4.6,81,0.00,,,0.00,0.0,WeatherDisplay:10.37,2013-08-20 06:59:00,